Home   Weather   Dominica   Roseau   Past weeks
Flag for Dominica

Past Weather in Roseau, Dominica — Yesterday and Last 2 Weeks

Currently: 77 °F. Passing clouds. (Weather station: Le Lamentin Airport, Dominica). See more current weather

Past Weather in Roseau — Graph

°F

Roseau Temperature Yesterday

Maximum temperature yesterday: 90 °F (at 11:30 am)
Minimum temperature yesterday: 73 °F (at 12:00 am)
Average temperature yesterday: 81 °F

High & Low Weather Summary for the Past Weeks

 TemperatureHumidityPressure
High91 °F (Sep 18, 12:30 pm)100% (Sep 16, 11:30 pm)30.01 "Hg (Sep 16, 11:30 pm)
Low73 °F (Sep 17, 9:00 pm)59% (Sep 24, 11:00 am)29.74 "Hg (Sep 16, 3:00 pm)
Average81 °F85%29.87 "Hg
* Reported Sep 16 3:00 am — Oct 1 3:00 am, Roseau. Weather by CustomWeather, © 2022

Note: Actual official high and low records may vary slightly from our data, if they occured in-between our weather recording intervals... More about our weather records

Roseau Weather History for the Previous 24 Hours

Scroll right to see more
 ConditionsComfort  
Time TempWeatherWind HumidityBarometerVisibility
3:00 am
Sat, Oct 1
77 °FPassing clouds.3 mph94%29.89 "HgN/A
2:30 am77 °FWarm.3 mph94%29.89 "HgN/A
2:00 am77 °FPassing clouds.5 mph94%29.89 "HgN/A
1:30 am77 °FPassing clouds.2 mph94%29.89 "HgN/A
1:00 am77 °FWarm.5 mph94%29.89 "HgN/A
12:30 am77 °FWarm.3 mph94%29.89 "HgN/A
12:00 am77 °FWarm.2 mph94%29.89 "HgN/A
11:00 pm
Fri, Sep 30
77 °FWarm.No wind94%29.92 "HgN/A
10:30 pm77 °FWarm.3 mph94%29.92 "HgN/A
10:00 pm79 °FWarm.2 mph89%29.89 "HgN/A
9:30 pm79 °FWarm.2 mph89%29.89 "HgN/A
9:00 pm79 °FPassing clouds.2 mph89%29.89 "HgN/A
7:30 pm81 °FPassing clouds.6 mph84%29.86 "Hg4 mi
7:00 pm81 °FPassing clouds.6 mph89%29.86 "HgN/A
6:30 pm82 °FPassing clouds.5 mph84%29.83 "HgN/A
6:00 pm82 °FPassing clouds.6 mph79%29.83 "HgN/A
5:30 pm84 °FPassing clouds.6 mph74%29.83 "HgN/A
5:00 pm86 °FScattered clouds.8 mph70%29.83 "HgN/A
4:30 pm88 °FPassing clouds.9 mph70%29.80 "HgN/A
3:30 pm88 °FPartly sunny.10 mph70%29.80 "HgN/A
3:00 pm90 °FPartly sunny.10 mph71%29.80 "HgN/A
2:30 pm90 °FPartly sunny.13 mph67%29.80 "HgN/A
2:00 pm90 °FBroken clouds.12 mph71%29.80 "HgN/A
1:30 pm88 °FScattered clouds.12 mph70%29.83 "HgN/A
12:30 pm86 °FBroken clouds.8 mph84%29.86 "HgN/A
12:00 pm88 °FPartly sunny.12 mph66%29.86 "HgN/A
11:30 am90 °FPartly sunny.12 mph71%29.86 "HgN/A
11:00 am88 °FMostly cloudy.12 mph75%29.89 "HgN/A
10:30 am86 °FPartly sunny.12 mph75%29.89 "HgN/A
10:00 am88 °FBroken clouds.12 mph75%29.89 "HgN/A
9:30 am88 °FBroken clouds.8 mph75%29.89 "HgN/A
9:00 am86 °FPartly sunny.6 mph75%29.89 "HgN/A
8:30 am84 °FPartly sunny.5 mph79%29.89 "HgN/A
8:00 am82 °FPartly sunny.5 mph84%29.86 "HgN/A
7:30 am79 °FPassing clouds.3 mph94%29.86 "HgN/A
7:00 am77 °FPartly sunny.3 mph100%29.83 "HgN/A
6:30 am75 °FScattered clouds.3 mph100%29.83 "HgN/A
6:00 am75 °FSunny.3 mph100%29.83 "Hg10 mi
5:30 am75 °FPassing clouds.2 mph100%29.83 "HgN/A
5:00 am75 °FPassing clouds.5 mph94%29.83 "HgN/A
Weather by CustomWeather, © 2022

See weather overview